Time;durP1;ratioP1;P1;durP2;ratioP2;P2;SDS_P1;SDS_P2;PMS_P1;PMS_P2;Temp;Humidity;BMP_temperature;BMP_pressure;BME280_temperature;BME280_humidity;BME280_pressure;Samples;Min_cycle;Max_cycle;Signal;HPM_P1;HPM_P2
2024/03/19 00:01:10;;;;;;;5.97;4.73;;;9.80;99.90;;;11.76;64.58;97770.69;5015586;28;20062;-44
2024/03/19 00:03:37;;;;;;;4.93;4.40;;;9.80;99.90;;;11.73;64.41;97771.84;5027306;28;20499;-43
2024/03/19 00:06:04;;;;;;;6.30;4.57;;;9.80;99.90;;;11.69;64.38;97767.00;5026023;28;20043;-44
2024/03/19 00:08:30;;;;;;;5.13;3.87;;;9.80;99.90;;;11.62;64.23;97770.31;5009680;28;20050;-43
2024/03/19 00:10:57;;;;;;;5.20;3.80;;;9.70;99.90;;;11.60;64.45;97775.00;4992966;28;20050;-43
2024/03/19 00:13:24;;;;;;;6.53;5.07;;;9.70;99.90;;;11.59;64.45;97783.16;5024667;28;20052;-43
2024/03/19 00:15:51;;;;;;;5.57;4.27;;;9.70;99.90;;;11.60;64.69;97782.16;5027250;28;20055;-44
2024/03/19 00:18:18;;;;;;;5.80;4.43;;;9.70;99.90;;;11.58;64.47;97773.50;5017041;28;20423;-44
2024/03/19 00:20:45;;;;;;;6.70;5.23;;;9.70;99.90;;;11.53;64.67;97770.47;5009219;28;20055;-43
2024/03/19 00:23:11;;;;;;;6.97;4.80;;;9.60;99.90;;;11.49;64.85;97772.63;5015066;28;20055;-44
2024/03/19 00:25:38;;;;;;;6.87;4.33;;;9.60;99.90;;;11.47;64.74;97773.81;5009799;28;20048;-44
2024/03/19 00:28:05;;;;;;;4.63;3.60;;;9.50;99.90;;;11.47;64.90;97774.63;5025870;28;20054;-43
2024/03/19 00:30:33;;;;;;;7.47;4.07;;;9.60;99.90;;;11.51;64.85;97775.97;4992597;28;20061;-43
2024/03/19 00:32:59;;;;;;;5.43;4.07;;;9.70;99.90;;;11.54;64.78;97778.31;5009649;28;20043;-44
2024/03/19 00:35:26;;;;;;;4.90;3.70;;;9.70;99.90;;;11.59;65.20;97783.16;5008057;28;20064;-43
2024/03/19 00:37:53;;;;;;;7.37;4.90;;;9.80;99.90;;;11.57;64.71;97774.47;5027838;28;20052;-44
2024/03/19 00:40:20;;;;;;;5.33;3.63;;;9.80;99.90;;;11.57;64.35;97777.16;5002873;28;20500;-44
2024/03/19 00:42:47;;;;;;;5.50;4.40;;;9.70;99.90;;;11.55;64.46;97769.31;5012822;28;20042;-43
2024/03/19 00:45:13;;;;;;;5.47;4.40;;;9.70;99.90;;;11.56;64.91;97770.16;5018242;28;20526;-43
2024/03/19 00:47:40;;;;;;;5.50;4.17;;;9.70;99.90;;;11.55;64.69;97774.63;5029942;28;20041;-43
2024/03/19 00:50:07;;;;;;;3.73;3.20;;;9.70;99.90;;;11.52;64.45;97771.50;5029641;28;20044;-43
2024/03/19 00:52:34;;;;;;;4.80;3.43;;;9.60;99.90;;;11.47;64.32;97760.47;5012402;28;20532;-43
2024/03/19 00:55:04;;;;;;;5.57;3.60;;;9.60;99.90;;;11.41;64.36;97768.13;5012798;28;20395;-44
2024/03/19 00:57:32;;;;;;;5.57;4.20;;;9.50;99.90;;;11.40;64.53;97768.31;5029310;28;20044;-43
2024/03/19 00:59:58;;;;;;;5.60;3.33;;;9.50;99.90;;;11.38;64.94;97759.59;5030009;28;20442;-46
2024/03/19 01:02:26;;;;;;;4.93;3.50;;;9.50;99.90;;;11.37;64.48;97757.97;5016987;28;20427;-44
2024/03/19 01:04:53;;;;;;;4.53;3.40;;;9.60;99.90;;;11.32;64.32;97760.25;5012115;28;20465;-43
2024/03/19 01:07:21;;;;;;;5.60;3.47;;;9.50;99.90;;;11.26;64.13;97760.91;5020584;28;20043;-44
2024/03/19 01:09:47;;;;;;;4.37;2.97;;;9.30;99.90;;;11.18;64.53;97757.22;5029836;28;20517;-44
2024/03/19 01:12:14;;;;;;;4.90;3.13;;;9.20;99.90;;;11.13;64.66;97753.41;5025142;28;20514;-45
2024/03/19 01:14:41;;;;;;;3.60;3.23;;;9.20;99.90;;;11.10;64.56;97751.06;4996095;28;20050;-46
2024/03/19 01:17:07;;;;;;;5.63;2.80;;;9.20;99.90;;;11.06;64.42;97757.72;5012227;28;20043;-44
2024/03/19 01:19:34;;;;;;;3.57;2.67;;;9.10;99.90;;;11.02;64.71;97749.19;5029393;28;20049;-44
2024/03/19 01:22:01;;;;;;;5.13;3.67;;;9.10;99.90;;;10.99;64.47;97753.03;5029392;28;20500;-44
2024/03/19 01:24:27;;;;;;;4.43;2.87;;;9.10;99.90;;;10.93;64.72;97743.00;5014124;28;20041;-44
2024/03/19 01:26:54;;;;;;;3.73;2.60;;;9.00;99.90;;;10.90;64.91;97745.16;4995834;28;20066;-46
2024/03/19 01:29:21;;;;;;;4.57;2.70;;;8.90;99.90;;;10.88;64.53;97749.81;5019647;28;20076;-45
2024/03/19 01:31:48;;;;;;;6.90;3.40;;;8.90;99.90;;;10.87;64.68;97748.97;5029318;28;20041;-45
2024/03/19 01:34:14;;;;;;;4.30;2.80;;;8.90;99.90;;;10.84;64.69;97742.16;5026493;28;20397;-44
2024/03/19 01:36:41;;;;;;;3.70;2.93;;;8.90;99.90;;;10.83;64.38;97744.97;5012160;28;20047;-44
2024/03/19 01:39:09;;;;;;;5.07;3.27;;;8.90;99.90;;;10.83;65.03;97743.13;5011992;28;20043;-45
2024/03/19 01:41:36;;;;;;;4.37;3.40;;;9.00;99.90;;;10.85;64.62;97734.97;5011554;28;20057;-45
2024/03/19 01:44:03;;;;;;;5.37;3.90;;;9.00;99.90;;;10.82;64.99;97737.97;5011775;28;20453;-44
2024/03/19 01:46:29;;;;;;;5.33;2.67;;;9.00;99.90;;;10.79;64.78;97740.94;5024900;28;20065;-45
2024/03/19 01:48:58;;;;;;;4.13;3.17;;;8.90;99.90;;;10.79;64.68;97740.94;5028605;28;20047;-46
2024/03/19 01:51:26;;;;;;;4.30;3.13;;;8.90;99.90;;;10.77;64.72;97741.09;5019314;28;20040;-45
2024/03/19 01:53:56;;;;;;;5.03;3.70;;;8.90;99.90;;;10.75;64.69;97735.09;5011709;28;20058;-47
2024/03/19 01:56:23;;;;;;;5.10;3.53;;;8.90;99.90;;;10.74;64.93;97735.25;5003422;28;20499;-44
2024/03/19 01:58:51;;;;;;;4.83;3.57;;;8.90;99.90;;;10.72;64.60;97737.25;5029031;28;20044;-45
2024/03/19 02:01:18;;;;;;;6.13;3.60;;;8.80;99.90;;;10.70;64.88;97733.91;5008688;28;20052;-44
2024/03/19 02:03:46;;;;;;;6.70;3.80;;;8.80;99.90;;;10.70;64.83;97728.59;5011820;28;20045;-47
2024/03/19 02:06:14;;;;;;;5.10;3.57;;;8.80;99.90;;;10.70;65.07;97731.25;5011452;28;20035;-45
2024/03/19 02:09:03;;;;;;;5.20;3.40;;;8.80;99.90;;;10.71;64.86;97720.44;4987853;28;20486;-45
2024/03/19 02:11:31;;;;;;;8.53;4.07;;;8.80;99.90;;;10.72;64.85;97724.78;5022432;28;20039;-45
2024/03/19 02:14:04;;;;;;;5.30;4.00;;;8.80;99.90;;;10.73;65.14;97718.47;4995937;28;20505;-47
2024/03/19 02:16:31;;;;;;;5.90;4.15;;;8.90;99.90;;;10.76;64.97;97719.97;5017313;28;20044;-46
2024/03/19 02:19:04;;;;;;;5.70;3.97;;;8.90;99.90;;;10.79;64.77;97722.31;5011277;28;20393;-43
2024/03/19 02:21:33;;;;;;;5.53;3.63;;;8.90;99.90;;;10.82;65.35;97716.69;5022143;28;20502;-45
2024/03/19 02:24:02;;;;;;;5.90;4.33;;;9.00;99.90;;;10.86;65.31;97714.50;5027811;28;20044;-45
2024/03/19 02:26:31;;;;;;;7.07;4.40;;;9.00;99.90;;;10.87;64.93;97717.00;5018680;28;20481;-46
2024/03/19 02:29:00;;;;;;;6.90;3.50;;;9.00;99.90;;;10.85;64.95;97713.66;5011365;28;20045;-45
2024/03/19 02:31:29;;;;;;;4.80;3.50;;;9.00;99.90;;;10.88;65.37;97717.88;5018337;28;20517;-43
2024/03/19 02:33:56;;;;;;;5.50;3.93;;;9.00;99.90;;;10.88;65.26;97715.19;5028499;28;20040;-43
2024/03/19 02:36:24;;;;;;;4.37;3.30;;;9.00;99.90;;;10.87;64.80;97717.00;5022717;28;20047;-44
2024/03/19 02:38:51;;;;;;;5.17;3.90;;;9.10;99.90;;;10.87;65.10;97719.66;5010900;28;20391;-44
2024/03/19 02:41:18;;;;;;;4.80;4.07;;;9.00;99.90;;;10.86;65.21;97711.84;4995428;28;20054;-44
2024/03/19 02:43:45;;;;;;;4.87;3.73;;;9.00;99.90;;;10.87;64.80;97708.19;5028155;28;20056;-45
2024/03/19 02:46:12;;;;;;;6.07;4.03;;;9.00;99.90;;;10.83;64.78;97705.00;5011815;28;20036;-45
2024/03/19 02:48:38;;;;;;;5.33;4.00;;;9.00;99.90;;;10.82;65.33;97714.00;5012656;28;20047;-44
2024/03/19 02:51:05;;;;;;;7.17;3.97;;;9.00;99.90;;;10.80;64.77;97713.34;5010449;28;20054;-44
2024/03/19 02:53:32;;;;;;;4.27;3.70;;;8.90;99.90;;;10.78;65.17;97715.34;5020824;28;20043;-44
2024/03/19 02:55:58;;;;;;;6.93;4.40;;;8.90;99.90;;;10.77;65.09;97718.97;5028176;28;20040;-44
2024/03/19 02:58:26;;;;;;;5.10;3.57;;;8.90;99.90;;;10.75;64.93;97710.31;5022717;28;20040;-43
2024/03/19 03:00:53;;;;;;;6.43;4.00;;;8.80;99.90;;;10.74;65.01;97713.97;5010218;28;20046;-44
2024/03/19 03:03:20;;;;;;;5.70;4.00;;;8.80;99.90;;;10.73;65.07;97722.97;5011197;28;20382;-44
2024/03/19 03:05:47;;;;;;;6.40;4.03;;;8.80;99.90;;;10.74;64.87;97724.59;5027571;28;20040;-44
2024/03/19 03:08:14;;;;;;;5.47;3.57;;;8.80;99.90;;;10.73;65.08;97730.94;5028042;28;20041;-44
2024/03/19 03:10:41;;;;;;;5.73;4.13;;;8.80;99.90;;;10.72;64.90;97729.25;5011932;28;20043;-44
2024/03/19 03:13:08;;;;;;;4.10;3.07;;;8.80;99.90;;;10.71;65.11;97728.44;5010457;28;20039;-45
2024/03/19 03:15:35;;;;;;;3.80;3.03;;;8.80;99.90;;;10.68;64.59;97726.09;5021497;28;20046;-45
2024/03/19 03:18:02;;;;;;;5.20;3.93;;;8.80;99.90;;;10.66;65.13;97730.72;5027481;28;20512;-45
2024/03/19 03:20:28;;;;;;;5.43;3.47;;;8.70;99.90;;;10.62;64.54;97722.25;5021107;28;20041;-45
2024/03/19 03:22:55;;;;;;;4.73;3.27;;;8.70;99.90;;;10.61;64.67;97719.75;5010466;28;20043;-46
2024/03/19 03:25:22;;;;;;;4.07;3.20;;;8.70;99.90;;;10.59;64.57;97719.91;5010578;28;20418;-44
2024/03/19 03:27:50;;;;;;;4.07;2.77;;;8.70;99.90;;;10.57;64.88;97718.41;5027863;28;20032;-44
2024/03/19 03:30:17;;;;;;;5.27;3.17;;;8.60;99.90;;;10.54;64.98;97726.69;5027487;28;20784;-45
2024/03/19 03:32:45;;;;;;;4.53;3.37;;;8.60;99.90;;;10.52;65.18;97726.84;5011633;28;20421;-46
2024/03/19 03:35:13;;;;;;;5.80;3.90;;;8.60;99.90;;;10.50;64.93;97726.16;5010471;28;20514;-45
2024/03/19 03:37:40;;;;;;;4.40;3.60;;;8.60;99.90;;;10.48;64.70;97730.81;5023013;28;20494;-44
2024/03/19 03:40:17;;;;;;;5.23;3.83;;;8.60;99.90;;;10.48;64.76;97730.81;5027314;28;20043;-46
2024/03/19 03:42:48;;;;;;;4.57;3.70;;;8.60;99.90;;;10.44;64.86;97727.63;5011655;28;20054;-45
2024/03/19 03:45:20;;;;;;;5.40;4.23;;;8.50;99.90;;;10.44;64.95;97740.13;5009989;28;20043;-45
2024/03/19 03:47:48;;;;;;;4.80;3.73;;;8.50;99.90;;;10.42;65.10;97728.81;5027212;28;20036;-46
2024/03/19 03:50:16;;;;;;;5.13;4.07;;;8.50;99.90;;;10.40;65.04;97731.63;5011220;28;20040;-44
2024/03/19 03:52:43;;;;;;;5.93;4.23;;;8.50;99.90;;;10.38;65.03;97732.78;5012692;28;20043;-45
2024/03/19 03:55:11;;;;;;;8.80;4.43;;;8.40;99.90;;;10.37;64.95;97739.06;5009920;28;20050;-45
2024/03/19 03:57:42;;;;;;;5.63;4.30;;;8.40;99.90;;;10.37;65.31;97736.41;5020021;28;20051;-45
2024/03/19 04:00:10;;;;;;;5.13;4.27;;;8.40;99.90;;;10.37;64.90;97731.94;5027522;28;20422;-44
2024/03/19 04:02:42;;;;;;;6.60;4.27;;;8.40;99.90;;;10.35;65.03;97736.59;5017243;28;20450;-45
2024/03/19 04:05:10;;;;;;;6.00;4.00;;;8.40;99.90;;;10.33;65.19;97741.25;5009830;28;20035;-43
2024/03/19 04:07:40;;;;;;;4.93;4.00;;;8.40;99.90;;;10.32;64.95;97741.38;5018535;28;20047;-44
2024/03/19 04:10:09;;;;;;;4.87;3.70;;;8.40;99.90;;;10.31;65.14;97737.88;5026866;28;20416;-45
2024/03/19 04:12:36;;;;;;;5.10;4.03;;;8.40;99.90;;;10.32;65.37;97741.38;5019030;28;20376;-44
2024/03/19 04:15:06;;;;;;;4.77;3.60;;;8.40;99.90;;;10.31;64.82;97740.53;5013374;28;20061;-45
2024/03/19 04:17:35;;;;;;;5.10;4.33;;;8.40;99.90;;;10.30;65.25;97740.69;5018704;28;20051;-44
2024/03/19 04:20:06;;;;;;;4.40;3.67;;;8.40;99.90;;;10.27;65.00;97736.50;5030696;28;20423;-43
2024/03/19 04:22:34;;;;;;;4.07;3.50;;;8.40;99.90;;;10.30;64.99;97743.34;5007992;28;20048;-44
2024/03/19 04:25:03;;;;;;;4.77;3.90;;;8.40;99.90;;;10.31;65.47;97751.19;5010584;28;20043;-44
2024/03/19 04:27:29;;;;;;;6.93;3.97;;;8.50;99.90;;;10.33;65.18;97746.56;4988835;28;20037;-44
2024/03/19 04:29:56;;;;;;;5.30;3.10;;;8.50;99.90;;;10.36;64.98;97748.06;5013258;28;20039;-44
2024/03/19 04:32:23;;;;;;;4.47;3.47;;;8.60;99.90;;;10.36;65.11;97742.75;5012657;28;20038;-44
2024/03/19 04:34:49;;;;;;;4.47;3.50;;;8.50;99.90;;;10.33;64.88;97746.56;5012643;28;20040;-44
2024/03/19 04:37:16;;;;;;;4.90;3.50;;;8.50;99.90;;;10.34;64.83;97750.06;5014501;28;20049;-44
2024/03/19 04:39:42;;;;;;;3.40;3.03;;;8.50;99.90;;;10.31;64.91;97753.00;5019268;28;20041;-44
2024/03/19 04:42:15;;;;;;;5.37;3.20;;;8.40;99.90;;;10.28;64.62;97748.00;4996319;28;20054;-45
2024/03/19 04:44:43;;;;;;;4.53;3.40;;;8.40;99.90;;;10.23;64.93;97753.75;5023484;28;20047;-44
2024/03/19 04:47:11;;;;;;;4.87;3.87;;;8.40;99.90;;;10.16;64.36;97748.25;5030167;28;20043;-44
2024/03/19 04:49:38;;;;;;;6.00;5.40;;;8.20;99.90;;;10.14;64.50;97746.72;5022993;28;20056;-45
2024/03/19 04:52:05;;;;;;;5.30;3.87;;;8.20;99.90;;;10.10;64.69;97745.34;4995941;28;20063;-44
2024/03/19 04:54:31;;;;;;;5.20;3.60;;;8.20;99.90;;;10.05;64.75;97748.50;5014578;28;20043;-44
2024/03/19 04:56:58;;;;;;;4.27;3.50;;;8.10;99.90;;;10.01;64.95;97750.63;5030382;28;20248;-46
2024/03/19 04:59:24;;;;;;;5.00;3.97;;;8.10;99.90;;;10.00;64.98;97751.63;5030040;28;20434;-43
2024/03/19 05:01:51;;;;;;;4.83;4.30;;;8.10;99.90;;;9.99;64.63;97751.78;5013864;28;20050;-44
2024/03/19 05:04:20;;;;;;;5.43;3.77;;;8.10;99.90;;;9.98;64.62;97755.41;4996306;28;20039;-43
2024/03/19 05:06:46;;;;;;;5.70;4.23;;;8.10;99.90;;;9.94;64.88;97760.19;5025136;28;20051;-43
2024/03/19 05:09:14;;;;;;;4.63;3.53;;;8.00;99.90;;;9.90;64.33;97753.53;5030583;28;20036;-43
2024/03/19 05:11:41;;;;;;;5.23;3.90;;;7.90;99.90;;;9.85;64.87;97761.16;5021039;28;20040;-43
2024/03/19 05:14:08;;;;;;;4.70;3.60;;;7.90;99.90;;;9.81;64.84;97759.78;5012418;28;20047;-44
2024/03/19 05:16:35;;;;;;;5.43;4.20;;;7.80;99.90;;;9.78;64.65;97760.09;5015730;28;20417;-45
2024/03/19 05:19:01;;;;;;;5.00;4.23;;;7.80;99.90;;;9.74;64.66;97756.88;5029949;28;20048;-43
2024/03/19 05:21:28;;;;;;;4.93;4.00;;;7.80;99.90;;;9.70;64.32;97752.03;5029037;28;20051;-43
2024/03/19 05:23:55;;;;;;;5.17;4.17;;;7.70;99.90;;;9.64;64.22;97758.81;5011855;28;20502;-44
2024/03/19 05:26:21;;;;;;;5.20;4.13;;;7.60;99.90;;;9.60;64.43;97757.44;5011884;28;20038;-43
2024/03/19 05:28:48;;;;;;;6.17;4.23;;;7.60;99.90;;;9.57;64.77;97753.25;5023866;28;20039;-43
2024/03/19 05:31:22;;;;;;;6.03;4.67;;;7.60;99.90;;;9.53;64.74;97757.19;5029287;28;20408;-43
2024/03/19 05:33:51;;;;;;;6.93;4.00;;;7.60;99.90;;;9.52;64.33;97752.03;5001090;28;20044;-43
2024/03/19 05:36:18;;;;;;;6.33;4.80;;;7.50;99.90;;;9.50;64.43;97754.84;5011925;28;20513;-43
2024/03/19 05:38:45;;;;;;;5.23;4.17;;;7.60;99.90;;;9.48;64.66;97758.63;5020818;28;20247;-43
2024/03/19 05:41:13;;;;;;;5.23;4.60;;;7.50;99.90;;;9.44;64.33;97756.31;5028984;28;20428;-43
2024/03/19 05:43:39;;;;;;;8.00;5.97;;;7.50;99.90;;;9.44;64.68;97761.63;5024296;28;20044;-43
2024/03/19 05:46:06;;;;;;;5.93;4.90;;;7.60;99.90;;;9.45;64.65;97759.78;5011786;28;20042;-44
2024/03/19 05:48:34;;;;;;;6.37;5.83;;;7.60;99.90;;;9.43;64.67;97756.44;5011643;28;20498;-44
2024/03/19 05:51:02;;;;;;;6.20;5.57;;;7.60;99.70;;;9.42;64.25;97758.28;5020234;28;20039;-43
2024/03/19 05:53:28;;;;;;;7.23;5.53;;;7.60;99.90;;;9.42;64.61;97766.25;4995537;28;20501;-42
2024/03/19 05:55:57;;;;;;;7.43;6.13;;;7.60;99.90;;;9.41;64.69;97758.41;5026745;28;20037;-43
2024/03/19 05:58:24;;;;;;;6.47;4.67;;;7.50;99.70;;;9.39;64.38;97760.38;5028957;28;20071;-43
2024/03/19 06:00:52;;;;;;;5.97;5.03;;;7.50;99.90;;;9.39;64.76;97763.88;5017089;28;20040;-43
2024/03/19 06:03:18;;;;;;;7.43;5.50;;;7.60;99.90;;;9.40;64.74;97770.03;5011021;28;20055;-43
2024/03/19 06:05:45;;;;;;;7.00;5.27;;;7.50;99.90;;;9.41;64.84;97771.69;5018380;28;20079;-43
2024/03/19 06:08:12;;;;;;;6.93;5.47;;;7.60;99.90;;;9.43;64.85;97778.53;5028780;28;20051;-45
2024/03/19 06:10:38;;;;;;;7.33;5.40;;;7.60;99.90;;;9.44;65.09;97777.56;5025514;28;20044;-45
2024/03/19 06:13:05;;;;;;;7.00;5.17;;;7.60;99.90;;;9.46;64.77;97775.59;5011343;28;20035;-44
2024/03/19 06:15:31;;;;;;;8.57;6.37;;;7.70;99.90;;;9.48;65.00;97770.13;5011330;28;20051;-45
2024/03/19 06:17:58;;;;;;;6.63;5.40;;;7.70;99.90;;;9.49;64.73;97784.25;5026860;28;20495;-44
2024/03/19 06:20:25;;;;;;;7.90;6.37;;;7.70;99.90;;;9.53;64.69;97788.25;5011910;28;20036;-44
2024/03/19 06:22:53;;;;;;;8.10;6.90;;;7.80;99.90;;;9.55;64.74;97784.47;5017698;28;20060;-44
2024/03/19 06:25:20;;;;;;;6.80;5.27;;;7.80;99.90;;;9.58;64.89;97781.50;5011081;28;20034;-45
2024/03/19 06:27:46;;;;;;;7.73;5.53;;;7.90;99.90;;;9.62;64.81;97784.69;5017828;28;20046;-43
2024/03/19 06:30:14;;;;;;;28.07;7.50;;;7.90;99.90;;;9.63;64.79;97795.19;5028527;28;20040;-44
2024/03/19 06:32:41;;;;;;;6.20;4.80;;;7.90;99.90;;;9.68;64.82;97789.41;5018640;28;20414;-45
2024/03/19 06:35:08;;;;;;;7.63;5.40;;;8.00;99.90;;;9.72;65.00;97795.25;5011876;28;20089;-46
2024/03/19 06:37:36;;;;;;;7.47;5.63;;;8.00;99.90;;;9.76;65.39;97793.97;5028091;28;20044;-44
2024/03/19 06:40:05;;;;;;;7.30;5.10;;;8.00;99.90;;;9.79;65.12;97797.16;5010478;28;20409;-43
2024/03/19 06:42:32;;;;;;;7.63;4.50;;;8.10;99.90;;;9.82;65.02;97796.00;5010642;28;20509;-43
2024/03/19 06:44:58;;;;;;;7.80;5.40;;;8.10;99.90;;;9.86;65.01;97795.53;5025077;28;20462;-43
2024/03/19 06:47:25;;;;;;;6.93;5.60;;;8.20;99.90;;;9.91;65.44;97788.94;5027967;28;20036;-44
2024/03/19 06:49:52;;;;;;;7.33;5.27;;;8.30;99.90;;;9.94;65.46;97792.13;5018682;28;20040;-45
2024/03/19 06:52:18;;;;;;;6.10;5.10;;;8.30;99.90;;;9.98;65.46;97796.16;5010288;28;20035;-42
2024/03/19 06:54:45;;;;;;;6.80;5.17;;;8.30;99.90;;;10.01;65.38;97793.19;5014890;28;20062;-41
2024/03/19 06:57:12;;;;;;;7.77;5.57;;;8.30;99.90;;;10.04;65.44;97800.88;5011514;28;20047;-42
2024/03/19 06:59:38;;;;;;;7.20;5.40;;;8.30;99.90;;;10.05;65.87;97796.38;5028096;28;20044;-42
2024/03/19 07:02:07;;;;;;;8.00;5.57;;;8.30;99.90;;;10.09;65.59;97796.91;5010108;28;20066;-41
2024/03/19 07:04:35;;;;;;;7.87;6.37;;;8.40;99.90;;;10.15;65.87;97807.75;5010652;28;20054;-42
2024/03/19 07:07:02;;;;;;;7.63;6.17;;;8.50;99.90;;;10.22;65.83;97802.66;5025078;28;20487;-42
2024/03/19 07:09:31;;;;;;;8.10;6.00;;;8.60;99.90;;;10.28;65.81;97803.88;5027869;28;20036;-43
2024/03/19 07:11:58;;;;;;;7.00;5.57;;;8.60;99.90;;;10.35;65.90;97807.59;5015731;28;20507;-42
2024/03/19 07:14:25;;;;;;;7.57;5.63;;;8.70;99.90;;;10.42;66.01;97806.81;5010489;28;20043;-42
2024/03/19 07:16:52;;;;;;;6.73;5.20;;;8.80;99.90;;;10.50;66.22;97806.03;5016858;28;20069;-43
2024/03/19 07:19:18;;;;;;;6.23;5.40;;;8.90;99.90;;;10.59;66.04;97807.75;5027124;28;20032;-43
2024/03/19 07:21:45;;;;;;;6.53;5.40;;;9.00;99.90;;;10.68;66.33;97811.28;5024628;28;20041;-42
2024/03/19 07:24:12;;;;;;;6.70;5.13;;;9.10;99.90;;;10.77;66.40;97812.19;4990787;28;20051;-42
2024/03/19 07:26:38;;;;;;;8.37;5.23;;;9.20;99.90;;;10.83;66.15;97812.38;5009113;28;20050;-42
2024/03/19 07:29:05;;;;;;;5.87;5.23;;;9.30;99.90;;;10.92;66.33;97813.25;5025888;28;20055;-42
2024/03/19 07:31:32;;;;;;;7.30;4.50;;;9.40;99.90;;;10.99;66.41;97814.31;5026862;28;20037;-42
2024/03/19 07:33:58;;;;;;;6.97;4.77;;;9.50;99.90;;;11.06;66.08;97818.97;5016474;28;20045;-42
2024/03/19 07:36:25;;;;;;;7.83;5.37;;;9.50;99.90;;;11.12;66.02;97819.16;5010136;28;20414;-43
2024/03/19 07:38:52;;;;;;;6.27;4.70;;;9.50;99.90;;;11.20;66.26;97823.69;5015903;28;20039;-43
2024/03/19 07:41:19;;;;;;;5.43;4.30;;;9.60;99.90;;;11.26;66.31;97825.72;5010993;28;20052;-44
2024/03/19 07:43:45;;;;;;;6.57;4.77;;;9.70;99.90;;;11.31;66.11;97826.06;5026577;28;20045;-44
2024/03/19 07:46:12;;;;;;;6.47;5.30;;;9.70;99.90;;;11.36;66.13;97831.75;5010373;28;20043;-43
2024/03/19 07:48:39;;;;;;;5.83;3.97;;;9.80;99.90;;;11.42;65.99;97835.63;5012095;28;20057;-43
2024/03/19 07:51:06;;;;;;;8.03;4.60;;;9.90;99.90;;;11.47;65.82;97835.94;5028383;28;20044;-44
2024/03/19 07:53:33;;;;;;;8.20;4.73;;;10.00;99.90;;;11.52;65.92;97830.97;5031043;28;20045;-44
2024/03/19 07:55:59;;;;;;;6.83;4.57;;;10.00;99.90;;;11.56;66.23;97834.16;5020752;28;20523;-43
2024/03/19 07:58:26;;;;;;;6.77;5.43;;;10.10;99.90;;;11.59;66.41;97841.81;5013812;28;20382;-44
2024/03/19 08:00:53;;;;;;;8.97;6.00;;;10.10;99.90;;;11.66;66.17;97850.00;5017827;28;20073;-44
2024/03/19 08:03:19;;;;;;;9.57;5.43;;;10.20;99.90;;;11.70;66.02;97846.84;5031130;28;20040;-44
2024/03/19 08:05:46;;;;;;;8.17;5.47;;;10.20;99.90;;;11.75;65.99;97851.69;5014161;28;20044;-45
2024/03/19 08:08:13;;;;;;;6.43;4.63;;;10.30;99.90;;;11.80;65.95;97850.19;5013566;28;20042;-43
2024/03/19 08:10:39;;;;;;;6.17;4.83;;;10.30;99.90;;;11.84;65.84;97850.69;5013138;28;20043;-44
2024/03/19 08:13:06;;;;;;;6.53;5.87;;;10.30;99.90;;;11.90;65.67;97843.91;5010383;28;20047;-43
2024/03/19 08:15:33;;;;;;;6.27;4.77;;;10.30;99.90;;;11.94;65.80;97850.56;5030067;28;20059;-43
2024/03/19 08:17:59;;;;;;;7.47;5.33;;;10.40;99.90;;;11.99;65.90;97857.09;5006044;28;20049;-44
2024/03/19 08:20:26;;;;;;;6.23;5.30;;;10.50;99.90;;;12.04;65.84;97861.94;5013060;28;20039;-43
2024/03/19 08:22:53;;;;;;;7.53;5.40;;;10.50;99.90;;;12.10;65.75;97860.47;5016500;28;20050;-44
2024/03/19 08:25:20;;;;;;;6.73;5.37;;;10.50;99.90;;;12.15;65.44;97866.13;5030519;28;20037;-44
2024/03/19 08:27:47;;;;;;;7.97;5.33;;;10.60;99.90;;;12.19;65.60;97873.66;5030441;28;20515;-44
2024/03/19 08:30:13;;;;;;;6.03;5.13;;;10.70;99.90;;;12.26;65.66;97878.31;5013418;28;20035;-45
2024/03/19 08:32:40;;;;;;;5.87;5.17;;;10.80;99.90;;;12.31;65.54;97882.16;5012701;28;20043;-44
2024/03/19 08:35:08;;;;;;;6.87;5.27;;;10.80;99.90;;;12.38;65.66;97875.13;5025157;28;20046;-44
2024/03/19 08:37:38;;;;;;;10.97;5.10;;;10.80;99.90;;;12.46;65.45;97876.13;5029616;28;20044;-44
2024/03/19 08:40:06;;;;;;;7.50;5.43;;;10.90;99.90;;;12.53;65.49;97880.63;5018913;28;20393;-45
2024/03/19 08:42:34;;;;;;;7.00;4.63;;;11.00;99.90;;;12.59;65.54;97881.81;4996069;28;20050;-44
2024/03/19 08:45:05;;;;;;;6.70;5.10;;;11.20;99.90;;;12.61;65.53;97880.63;5020303;28;20494;-44
2024/03/19 08:47:32;;;;;;;6.37;4.00;;;11.20;99.50;;;12.68;65.34;97878.13;5030283;28;20037;-45
2024/03/19 08:49:58;;;;;;;5.50;4.57;;;11.30;99.00;;;12.73;65.29;97878.44;5024244;28;20719;-45
2024/03/19 08:52:25;;;;;;;5.70;4.70;;;11.30;98.50;;;12.81;65.18;97880.25;5012579;28;20038;-44
2024/03/19 08:54:52;;;;;;;5.97;4.60;;;11.40;98.90;;;12.85;65.22;97875.41;4997015;28;20431;-44
2024/03/19 08:57:18;;;;;;;7.27;5.03;;;11.40;98.50;;;12.92;65.21;97879.91;5029974;28;20515;-44
2024/03/19 08:59:46;;;;;;;5.83;4.17;;;11.50;98.60;;;12.94;64.89;97879.75;5029575;28;20067;-44
2024/03/19 09:02:12;;;;;;;5.90;4.63;;;11.50;98.40;;;12.95;65.04;97884.06;5014560;28;20061;-45
2024/03/19 09:04:39;;;;;;;12.13;5.15;;;11.50;97.90;;;12.98;65.00;97884.56;5012545;28;20061;-44
2024/03/19 09:07:07;;;;;;;6.60;5.00;;;11.60;98.00;;;13.01;64.99;97886.09;5021496;28;20055;-45
2024/03/19 09:09:34;;;;;;;7.90;5.27;;;11.60;97.90;;;13.01;65.00;97886.09;5029922;28;20041;-45
2024/03/19 09:12:00;;;;;;;6.27;5.30;;;11.70;98.10;;;13.04;64.85;97887.56;5023323;28;20054;-44
2024/03/19 09:14:27;;;;;;;7.03;5.47;;;11.60;97.60;;;13.06;64.90;97882.91;5012305;28;20035;-44
2024/03/19 09:16:54;;;;;;;6.55;5.85;;;11.70;97.70;;;13.09;64.99;97883.38;5012774;28;20506;-45
2024/03/19 09:19:20;;;;;;;10.60;5.50;;;11.70;98.00;;;13.10;64.95;97882.38;5029771;28;20439;-44
2024/03/19 09:21:47;;;;;;;5.87;5.23;;;11.70;97.70;;;13.17;65.10;97885.22;5029478;28;20049;-45
2024/03/19 09:24:14;;;;;;;7.53;5.65;;;11.70;97.70;;;13.23;64.82;97889.88;5015280;28;20066;-44
2024/03/19 09:26:40;;;;;;;6.93;5.43;;;11.80;98.00;;;13.26;64.72;97884.19;5011957;28;20051;-44
2024/03/19 09:29:07;;;;;;;7.72;5.88;;;11.80;97.70;;;13.31;64.81;97892.53;5021257;28;20415;-45
2024/03/19 09:31:34;;;;;;;7.60;5.50;;;11.90;97.60;;;13.38;64.82;97893.53;5029206;28;20064;-44
2024/03/19 09:34:00;;;;;;;5.77;5.17;;;12.10;97.10;;;13.40;64.88;97888.00;5025080;28;20515;-44
2024/03/19 09:36:27;;;;;;;6.50;5.80;;;12.10;96.40;;;13.44;64.60;97889.31;5012017;28;20046;-44
2024/03/19 09:38:53;;;;;;;7.05;5.53;;;12.20;96.20;;;13.52;64.52;97894.63;5011795;28;20047;-45
2024/03/19 09:41:22;;;;;;;6.55;5.60;;;12.30;96.10;;;13.57;64.60;97892.28;5011555;28;20042;-44
2024/03/19 09:43:50;;;;;;;6.65;5.25;;;12.30;96.00;;;13.63;64.38;97893.41;5011583;28;20077;-45
2024/03/19 09:46:19;;;;;;;6.57;5.88;;;12.30;95.60;;;13.67;64.23;97893.91;4987289;28;20039;-44
2024/03/19 09:48:46;;;;;;;5.38;4.85;;;12.30;95.40;;;13.73;64.31;97894.03;4995586;28;20274;-45
2024/03/19 09:51:22;;;;;;;6.65;5.47;;;12.30;96.40;;;13.82;64.20;97889.47;5023116;28;20042;-45
2024/03/19 09:53:49;;;;;;;6.03;5.28;;;12.50;96.40;;;13.89;64.24;97897.63;5029216;28;20547;-45
2024/03/19 09:56:19;;;;;;;6.40;5.78;;;12.60;95.90;;;13.91;64.15;97900.97;5015761;28;20040;-44
2024/03/19 09:58:50;;;;;;;7.82;5.78;;;12.60;95.40;;;13.97;64.23;97894.91;5011674;28;20054;-44
2024/03/19 10:01:17;;;;;;;8.35;5.63;;;12.70;95.50;;;13.97;64.09;97892.22;5025033;28;20059;-44
2024/03/19 10:03:44;;;;;;;6.80;5.40;;;12.70;95.00;;;13.99;64.00;97898.22;5028741;28;20045;-44
2024/03/19 10:06:17;;;;;;;7.68;5.25;;;12.70;94.60;;;14.01;64.05;97895.38;5019603;28;20412;-45
2024/03/19 10:08:48;;;;;;;8.77;5.68;;;12.70;95.00;;;14.02;63.92;97894.38;5011619;28;20047;-45
2024/03/19 10:11:15;;;;;;;6.93;5.57;;;12.70;95.00;;;13.99;63.94;97901.72;5006069;28;20054;-45
2024/03/19 10:13:42;;;;;;;7.63;5.60;;;12.70;95.50;;;14.00;63.86;97897.25;5004035;28;20053;-45
2024/03/19 10:16:11;;;;;;;8.13;5.30;;;12.70;95.70;;;14.01;63.97;97906.09;5021338;28;20048;-46
2024/03/19 10:18:38;;;;;;;11.13;7.30;;;12.70;95.40;;;14.02;63.88;97897.06;5011163;28;20054;-45
2024/03/19 10:21:07;;;;;;;7.72;5.13;;;12.70;95.20;;;14.03;64.19;97896.03;4998824;28;20046;-45
2024/03/19 10:23:35;;;;;;;8.85;6.13;;;12.70;95.50;;;14.05;63.85;97894.00;5028693;28;20066;-44
2024/03/19 10:26:02;;;;;;;9.45;6.35;;;12.70;95.80;;;14.08;63.90;97899.03;5006387;28;20408;-44